createdAt,value
2019-03-06T00:00:05.040Z,973.57
2019-03-06T00:01:04.566Z,973.47
2019-03-06T00:02:05.603Z,973.47
2019-03-06T00:03:04.649Z,973.60
2019-03-06T00:04:04.897Z,973.66
2019-03-06T00:05:05.226Z,973.53
2019-03-06T00:06:04.762Z,973.58
2019-03-06T00:07:04.859Z,973.58
2019-03-06T00:08:05.072Z,973.69
2019-03-06T00:09:05.249Z,973.69
2019-03-06T00:10:05.416Z,973.69
2019-03-06T00:11:05.110Z,973.66
2019-03-06T00:12:05.284Z,973.66
2019-03-06T00:13:05.063Z,973.88
2019-03-06T00:14:05.150Z,973.74
2019-03-06T00:15:04.776Z,973.71
2019-03-06T00:16:04.753Z,973.74
2019-03-06T00:17:05.017Z,973.71
2019-03-06T00:18:05.550Z,973.66
2019-03-06T00:19:04.636Z,973.71
2019-03-06T00:20:05.413Z,973.74
2019-03-06T00:21:04.613Z,973.68
2019-03-06T00:22:04.879Z,973.65
2019-03-06T00:23:05.102Z,973.68
2019-03-06T00:24:05.489Z,973.60
2019-03-06T00:25:04.629Z,973.77
2019-03-06T00:26:04.835Z,973.79
2019-03-06T00:27:04.831Z,973.68
2019-03-06T00:28:05.422Z,973.79
2019-03-06T00:29:09.755Z,973.60
2019-03-06T00:30:05.140Z,973.74
2019-03-06T00:31:05.325Z,973.85
2019-03-06T00:32:04.839Z,973.74
2019-03-06T00:33:04.943Z,973.76
2019-03-06T00:34:05.080Z,973.76
2019-03-06T00:35:05.054Z,973.85
2019-03-06T00:36:05.202Z,973.82
2019-03-06T00:37:04.879Z,973.79
2019-03-06T00:38:05.012Z,973.76
2019-03-06T00:39:05.098Z,973.62
2019-03-06T00:40:05.249Z,973.65
2019-03-06T00:41:05.508Z,973.76
2019-03-06T00:42:04.927Z,973.76
2019-03-06T00:43:05.203Z,973.74
2019-03-06T00:44:05.510Z,973.73
2019-03-06T00:45:04.892Z,973.76
2019-03-06T00:46:05.129Z,973.79
2019-03-06T00:47:05.374Z,973.82
2019-03-06T00:48:04.824Z,973.68
2019-03-06T00:49:05.431Z,973.63
2019-03-06T00:50:05.081Z,973.74
2019-03-06T00:51:05.196Z,973.74
2019-03-06T00:52:05.202Z,973.82
2019-03-06T00:53:05.293Z,973.85
2019-03-06T00:54:10.296Z,973.71
2019-03-06T00:55:04.920Z,973.80
2019-03-06T00:56:05.167Z,973.68
2019-03-06T00:57:05.215Z,973.71
2019-03-06T00:58:05.217Z,973.66
2019-03-06T00:59:04.640Z,973.74
2019-03-06T01:00:05.157Z,973.63
2019-03-06T01:01:05.303Z,973.77
2019-03-06T01:02:05.516Z,973.68
2019-03-06T01:03:04.798Z,973.66
2019-03-06T01:04:05.157Z,973.77
2019-03-06T01:05:05.329Z,973.63
2019-03-06T01:06:05.275Z,973.63
2019-03-06T01:07:05.285Z,973.65
2019-03-06T01:08:05.087Z,973.68
2019-03-06T01:09:05.309Z,973.63
2019-03-06T01:10:05.027Z,973.74
2019-03-06T01:11:05.012Z,973.74
2019-03-06T01:12:05.107Z,973.71
2019-03-06T01:13:05.429Z,973.57
2019-03-06T01:14:04.770Z,973.68
2019-03-06T01:15:04.959Z,973.68
2019-03-06T01:16:05.048Z,973.59
2019-03-06T01:17:04.888Z,973.59
2019-03-06T01:18:05.072Z,973.62
2019-03-06T01:19:05.126Z,973.52
2019-03-06T01:20:05.214Z,973.71
2019-03-06T01:21:05.286Z,973.44
2019-03-06T01:22:05.029Z,973.62
2019-03-06T01:23:05.354Z,973.59
2019-03-06T01:24:05.461Z,973.62
2019-03-06T01:25:04.819Z,973.59
2019-03-06T01:26:05.072Z,973.59
2019-03-06T01:27:05.511Z,973.54
2019-03-06T01:28:04.880Z,973.59
2019-03-06T01:29:10.442Z,973.59
2019-03-06T01:30:04.747Z,973.59
2019-03-06T01:31:04.985Z,973.54
2019-03-06T01:32:04.946Z,973.76
2019-03-06T01:33:05.159Z,973.59
2019-03-06T01:34:04.800Z,973.41
2019-03-06T01:35:04.951Z,973.41
2019-03-06T01:36:05.050Z,973.49
2019-03-06T01:37:05.097Z,973.41
2019-03-06T01:38:05.357Z,973.35
2019-03-06T01:39:04.806Z,973.46
2019-03-06T01:40:05.278Z,973.38
2019-03-06T01:41:04.907Z,973.44
2019-03-06T01:42:05.279Z,973.52
2019-03-06T01:43:04.983Z,973.49
2019-03-06T01:44:05.410Z,973.38
2019-03-06T01:45:04.629Z,973.47
2019-03-06T01:46:05.006Z,973.47
2019-03-06T01:47:05.127Z,973.35
2019-03-06T01:48:05.086Z,973.41
2019-03-06T01:49:05.251Z,973.30
2019-03-06T01:50:04.793Z,973.16
2019-03-06T01:51:04.784Z,973.33
2019-03-06T01:52:05.036Z,973.30
2019-03-06T01:53:05.305Z,973.33
2019-03-06T01:54:05.419Z,973.36
2019-03-06T01:55:05.537Z,973.22
2019-03-06T01:56:04.576Z,973.25
2019-03-06T01:57:05.387Z,973.30
2019-03-06T01:58:05.337Z,973.36
2019-03-06T01:59:05.242Z,973.30
2019-03-06T02:00:04.822Z,973.36
2019-03-06T02:01:05.481Z,973.33
2019-03-06T02:02:04.966Z,973.31
2019-03-06T02:03:04.604Z,973.42
2019-03-06T02:04:04.849Z,973.36
2019-03-06T02:05:05.072Z,973.45
2019-03-06T02:06:05.615Z,973.39
2019-03-06T02:07:04.953Z,973.48
2019-03-06T02:08:04.897Z,973.36
2019-03-06T02:09:05.045Z,973.39
2019-03-06T02:10:05.326Z,973.42
2019-03-06T02:11:04.607Z,973.39
2019-03-06T02:12:05.249Z,973.39
2019-03-06T02:13:04.817Z,973.42
2019-03-06T02:14:04.844Z,973.34
2019-03-06T02:15:04.956Z,973.42
2019-03-06T02:16:05.212Z,973.42
2019-03-06T02:17:05.438Z,973.31
2019-03-06T02:18:05.514Z,973.54
2019-03-06T02:19:04.778Z,973.40
2019-03-06T02:20:04.922Z,973.40
2019-03-06T02:21:05.184Z,973.31
2019-03-06T02:22:04.870Z,973.29
2019-03-06T02:23:05.032Z,973.34
2019-03-06T02:24:05.506Z,973.34
2019-03-06T02:25:04.912Z,973.48
2019-03-06T02:26:05.037Z,973.29
2019-03-06T02:27:04.772Z,973.32
2019-03-06T02:28:05.078Z,973.29
2019-03-06T02:29:10.065Z,973.29
2019-03-06T02:30:05.377Z,973.40
2019-03-06T02:31:05.056Z,973.26
2019-03-06T02:32:05.491Z,973.24
2019-03-06T02:33:05.522Z,973.26
2019-03-06T02:34:05.490Z,973.29
2019-03-06T02:35:05.399Z,973.29
2019-03-06T02:36:05.510Z,973.41
2019-03-06T02:37:04.577Z,973.21
2019-03-06T02:38:05.215Z,973.29
2019-03-06T02:39:05.370Z,973.27
2019-03-06T02:40:04.682Z,973.24
2019-03-06T02:41:05.138Z,973.41
2019-03-06T02:42:04.956Z,973.32
2019-03-06T02:43:04.967Z,973.19
2019-03-06T02:44:05.005Z,973.22
2019-03-06T02:45:04.744Z,973.19
2019-03-06T02:46:05.197Z,973.19
2019-03-06T02:47:05.239Z,973.24
2019-03-06T02:48:05.328Z,973.27
2019-03-06T02:49:10.447Z,973.30
2019-03-06T02:50:05.086Z,973.19
2019-03-06T02:51:05.215Z,973.16
2019-03-06T02:52:05.247Z,973.28
2019-03-06T02:53:04.886Z,973.14
2019-03-06T02:54:05.016Z,973.22
2019-03-06T02:55:05.145Z,973.08
2019-03-06T02:56:04.872Z,973.14
2019-03-06T02:57:04.991Z,973.14
2019-03-06T02:58:05.550Z,973.19
2019-03-06T02:59:05.054Z,973.30
2019-03-06T03:00:05.058Z,973.00
2019-03-06T03:01:05.382Z,972.97
2019-03-06T03:02:05.323Z,973.08
2019-03-06T03:03:04.709Z,973.14
2019-03-06T03:04:04.751Z,973.08
2019-03-06T03:05:05.244Z,973.03
2019-03-06T03:06:05.279Z,973.03
2019-03-06T03:07:05.454Z,973.03
2019-03-06T03:08:04.731Z,972.97
2019-03-06T03:09:05.470Z,973.00
2019-03-06T03:10:05.232Z,973.02
2019-03-06T03:11:04.984Z,973.05
2019-03-06T03:12:05.273Z,972.82
2019-03-06T03:13:05.343Z,972.96
2019-03-06T03:14:04.942Z,972.88
2019-03-06T03:15:05.295Z,973.01
2019-03-06T03:16:04.702Z,972.93
2019-03-06T03:17:05.161Z,973.01
2019-03-06T03:18:05.016Z,972.82
2019-03-06T03:19:05.363Z,972.90
2019-03-06T03:20:04.998Z,972.96
2019-03-06T03:21:05.371Z,972.93
2019-03-06T03:23:05.336Z,972.90
2019-03-06T03:23:10.500Z,972.90
2019-03-06T03:24:05.393Z,972.95
2019-03-06T03:25:04.843Z,972.90
2019-03-06T03:26:05.006Z,972.95
2019-03-06T03:27:05.087Z,972.92
2019-03-06T03:28:04.964Z,972.90
2019-03-06T03:29:05.278Z,972.92
2019-03-06T03:30:05.282Z,972.81
2019-03-06T03:31:04.865Z,972.70
2019-03-06T03:32:05.535Z,972.81
2019-03-06T03:33:04.966Z,972.87
2019-03-06T03:34:04.594Z,972.81
2019-03-06T03:35:05.227Z,972.79
2019-03-06T03:36:05.307Z,972.87
2019-03-06T03:37:04.990Z,972.87
2019-03-06T03:38:05.121Z,972.93
2019-03-06T03:39:05.200Z,972.82
2019-03-06T03:40:05.339Z,972.76
2019-03-06T03:41:05.399Z,972.85
2019-03-06T03:42:05.300Z,972.74
2019-03-06T03:43:05.331Z,972.82
2019-03-06T03:44:05.513Z,972.88
2019-03-06T03:45:04.994Z,972.90
2019-03-06T03:46:05.253Z,972.85
2019-03-06T03:47:04.797Z,972.79
2019-03-06T03:48:04.947Z,972.85
2019-03-06T03:49:05.439Z,972.71
2019-03-06T03:50:05.078Z,972.74
2019-03-06T03:51:04.850Z,972.68
2019-03-06T03:52:05.098Z,972.68
2019-03-06T03:53:04.879Z,972.74
2019-03-06T03:54:04.955Z,972.55
2019-03-06T03:55:05.043Z,972.63
2019-03-06T03:56:05.491Z,972.60
2019-03-06T03:57:05.152Z,972.80
2019-03-06T03:58:04.793Z,972.54
2019-03-06T03:59:04.954Z,972.66
2019-03-06T04:00:05.190Z,972.74
2019-03-06T04:01:05.265Z,972.60
2019-03-06T04:02:04.858Z,972.71
2019-03-06T04:03:05.009Z,972.65
2019-03-06T04:04:04.912Z,972.49
2019-03-06T04:05:04.689Z,972.63
2019-03-06T04:06:05.523Z,972.60
2019-03-06T04:07:05.058Z,972.60
2019-03-06T04:08:04.624Z,972.65
2019-03-06T04:09:05.120Z,972.65
2019-03-06T04:10:05.165Z,972.68
2019-03-06T04:11:05.323Z,972.84
2019-03-06T04:12:05.354Z,972.82
2019-03-06T04:13:05.275Z,972.79
2019-03-06T04:14:05.321Z,972.82
2019-03-06T04:15:04.895Z,972.90
2019-03-06T04:16:04.928Z,972.79
2019-03-06T04:17:05.485Z,972.76
2019-03-06T04:18:04.790Z,972.82
2019-03-06T04:19:05.207Z,972.85
2019-03-06T04:20:04.846Z,972.74
2019-03-06T04:21:05.149Z,972.90
2019-03-06T04:22:05.545Z,972.76
2019-03-06T04:23:05.243Z,972.79
2019-03-06T04:24:05.038Z,972.73
2019-03-06T04:25:05.162Z,972.87
2019-03-06T04:26:04.930Z,972.79
2019-03-06T04:27:05.246Z,972.81
2019-03-06T04:28:04.857Z,972.64
2019-03-06T04:29:10.251Z,972.48
2019-03-06T04:30:05.068Z,972.64
2019-03-06T04:31:05.436Z,972.61
2019-03-06T04:32:05.546Z,972.40
2019-03-06T04:33:04.649Z,972.69
2019-03-06T04:34:04.910Z,972.75
2019-03-06T04:35:05.475Z,972.55
2019-03-06T04:36:05.090Z,972.64
2019-03-06T04:37:04.727Z,972.55
2019-03-06T04:38:05.087Z,972.64
2019-03-06T04:39:05.250Z,972.72
2019-03-06T04:40:05.702Z,972.80
2019-03-06T04:41:04.966Z,972.80
2019-03-06T04:42:05.003Z,972.88
2019-03-06T04:43:04.780Z,972.77
2019-03-06T04:44:05.405Z,972.71
2019-03-06T04:45:04.940Z,972.85
2019-03-06T04:46:05.141Z,972.74
2019-03-06T04:47:05.199Z,972.88
2019-03-06T04:48:05.417Z,972.80
2019-03-06T04:49:05.440Z,972.88
2019-03-06T04:50:04.789Z,972.74
2019-03-06T04:51:04.723Z,972.88
2019-03-06T04:52:05.252Z,972.71
2019-03-06T04:53:05.345Z,972.77
2019-03-06T04:54:04.933Z,972.79
2019-03-06T04:55:05.565Z,972.82
2019-03-06T04:56:05.126Z,972.79
2019-03-06T04:57:04.639Z,972.73
2019-03-06T04:58:05.389Z,972.87
2019-03-06T04:59:05.053Z,972.76
2019-03-06T05:00:04.746Z,972.73
2019-03-06T05:01:05.422Z,972.79
2019-03-06T05:02:04.952Z,972.73
2019-03-06T05:03:04.993Z,972.76
2019-03-06T05:04:05.448Z,972.70
2019-03-06T05:05:05.437Z,972.64
2019-03-06T05:06:05.111Z,972.61
2019-03-06T05:07:04.703Z,972.66
2019-03-06T05:08:06.126Z,972.55
2019-03-06T05:09:05.211Z,972.58
2019-03-06T05:10:05.060Z,972.44
2019-03-06T05:11:04.875Z,972.42
2019-03-06T05:12:05.222Z,972.44
2019-03-06T05:13:05.402Z,972.60
2019-03-06T05:14:04.826Z,972.47
2019-03-06T05:15:05.478Z,972.60
2019-03-06T05:16:05.102Z,972.54
2019-03-06T05:17:05.215Z,972.46
2019-03-06T05:18:05.543Z,972.57
2019-03-06T05:19:04.884Z,972.59
2019-03-06T05:20:04.770Z,972.46
2019-03-06T05:21:05.488Z,972.59
2019-03-06T05:22:05.221Z,972.43
2019-03-06T05:23:05.244Z,972.45
2019-03-06T05:24:04.794Z,972.37
2019-03-06T05:25:05.355Z,972.31
2019-03-06T05:26:05.068Z,972.43
2019-03-06T05:27:05.386Z,972.31
2019-03-06T05:28:05.031Z,972.43
2019-03-06T05:29:09.799Z,972.31
2019-03-06T05:30:05.231Z,972.37
2019-03-06T05:31:05.162Z,972.31
2019-03-06T05:32:05.578Z,972.25
2019-03-06T05:33:04.985Z,972.28
2019-03-06T05:34:05.174Z,972.28
2019-03-06T05:35:05.391Z,972.28
2019-03-06T05:36:05.278Z,972.39
2019-03-06T05:37:05.286Z,972.39
2019-03-06T05:38:04.704Z,972.31
2019-03-06T05:39:04.994Z,972.31
2019-03-06T05:40:05.159Z,972.48
2019-03-06T05:41:05.378Z,972.22
2019-03-06T05:42:05.675Z,972.28
2019-03-06T05:43:05.121Z,972.20
2019-03-06T05:44:05.033Z,972.36
2019-03-06T05:45:04.946Z,972.36
2019-03-06T05:46:04.966Z,972.20
2019-03-06T05:47:04.827Z,972.28
2019-03-06T05:48:05.046Z,972.31
2019-03-06T05:49:05.465Z,972.22
2019-03-06T05:50:05.300Z,972.39
2019-03-06T05:51:05.462Z,972.39
2019-03-06T05:52:05.593Z,972.28
2019-03-06T05:53:05.396Z,972.39
2019-03-06T05:54:04.900Z,972.31
2019-03-06T05:55:05.159Z,972.37
2019-03-06T05:56:05.288Z,972.45
2019-03-06T05:57:05.192Z,972.42
2019-03-06T05:58:05.225Z,972.31
2019-03-06T05:59:05.448Z,972.31
2019-03-06T06:00:04.701Z,972.20
2019-03-06T06:01:10.181Z,972.28
2019-03-06T06:02:05.075Z,972.23
2019-03-06T06:03:05.230Z,971.95
2019-03-06T06:04:05.226Z,972.00
2019-03-06T06:05:05.071Z,972.09
2019-03-06T06:06:05.761Z,972.00
2019-03-06T06:07:05.405Z,972.09
2019-03-06T06:08:05.640Z,971.97
2019-03-06T06:09:05.072Z,972.00
2019-03-06T06:10:05.540Z,972.06
2019-03-06T06:11:05.307Z,971.97
2019-03-06T06:12:05.100Z,971.94
2019-03-06T06:13:05.092Z,971.91
2019-03-06T06:14:05.303Z,971.99
2019-03-06T06:15:04.664Z,971.97
2019-03-06T06:16:04.837Z,971.91
2019-03-06T06:17:05.039Z,971.94
2019-03-06T06:18:04.788Z,971.96
2019-03-06T06:19:05.227Z,971.96
2019-03-06T06:20:05.496Z,971.96
2019-03-06T06:21:05.462Z,971.90
2019-03-06T06:22:05.531Z,971.93
2019-03-06T06:23:04.961Z,971.90
2019-03-06T06:24:04.815Z,971.84
2019-03-06T06:25:05.239Z,971.92
2019-03-06T06:26:05.285Z,971.92
2019-03-06T06:27:05.586Z,972.00
2019-03-06T06:28:04.843Z,971.81
2019-03-06T06:29:10.066Z,972.11
2019-03-06T06:30:05.587Z,972.16
2019-03-06T06:31:04.870Z,972.10
2019-03-06T06:32:05.386Z,971.93
2019-03-06T06:33:05.836Z,972.07
2019-03-06T06:34:05.441Z,971.98
2019-03-06T06:35:04.846Z,971.95
2019-03-06T06:36:05.115Z,972.15
2019-03-06T06:37:05.194Z,972.20
2019-03-06T06:38:04.776Z,972.14
2019-03-06T06:39:05.389Z,972.06
2019-03-06T06:40:05.547Z,971.91
2019-03-06T06:41:05.043Z,971.97
2019-03-06T06:42:05.115Z,972.08
2019-03-06T06:43:05.566Z,972.19
2019-03-06T06:44:05.280Z,971.96
2019-03-06T06:45:04.946Z,972.07
2019-03-06T06:46:06.913Z,971.96
2019-03-06T06:47:04.975Z,971.99
2019-03-06T06:48:05.226Z,972.01
2019-03-06T06:49:10.558Z,971.84
2019-03-06T06:50:05.117Z,971.84
2019-03-06T06:51:05.412Z,971.77
2019-03-06T06:52:05.468Z,971.80
2019-03-06T06:53:04.961Z,971.92
2019-03-06T06:54:04.927Z,971.82
2019-03-06T06:55:05.044Z,971.90
2019-03-06T06:56:04.879Z,971.76
2019-03-06T06:57:04.615Z,971.95
2019-03-06T06:58:05.017Z,972.00
2019-03-06T06:59:04.909Z,971.92
2019-03-06T07:00:04.761Z,971.88
2019-03-06T07:01:05.268Z,972.02
2019-03-06T07:02:05.001Z,971.93
2019-03-06T07:03:05.342Z,972.01
2019-03-06T07:04:05.216Z,972.12
2019-03-06T07:05:05.251Z,972.03
2019-03-06T07:06:04.994Z,971.99
2019-03-06T07:07:05.259Z,971.93
2019-03-06T07:08:05.211Z,971.83
2019-03-06T07:09:05.055Z,972.04
2019-03-06T07:10:05.310Z,971.84
2019-03-06T07:11:05.601Z,971.94
2019-03-06T07:12:05.222Z,971.85
2019-03-06T07:13:04.803Z,971.93
2019-03-06T07:14:04.882Z,971.80
2019-03-06T07:15:04.914Z,971.79
2019-03-06T07:16:05.143Z,971.73
2019-03-06T07:17:04.941Z,971.70
2019-03-06T07:18:05.382Z,971.67
2019-03-06T07:19:05.408Z,971.75
2019-03-06T07:20:04.919Z,971.66
2019-03-06T07:21:05.054Z,971.60
2019-03-06T07:22:05.387Z,971.60
2019-03-06T07:23:04.781Z,971.53
2019-03-06T07:24:05.440Z,971.50
2019-03-06T07:25:05.078Z,971.39
2019-03-06T07:26:05.396Z,971.44
2019-03-06T07:27:05.413Z,971.44
2019-03-06T07:28:04.871Z,971.47
2019-03-06T07:29:05.555Z,971.38
2019-03-06T07:30:05.345Z,971.26
2019-03-06T07:31:05.494Z,971.35
2019-03-06T07:32:05.062Z,971.15
2019-03-06T07:33:04.633Z,971.29
2019-03-06T07:34:04.936Z,971.20
2019-03-06T07:35:05.311Z,971.06
2019-03-06T07:36:04.716Z,971.23
2019-03-06T07:37:04.856Z,971.42
2019-03-06T07:38:05.216Z,971.11
2019-03-06T07:39:05.657Z,971.34
2019-03-06T07:40:05.245Z,971.20
2019-03-06T07:41:05.575Z,971.22
2019-03-06T07:42:05.117Z,971.39
2019-03-06T07:43:05.371Z,971.31
2019-03-06T07:44:05.481Z,971.36
2019-03-06T07:45:04.750Z,971.42
2019-03-06T07:46:06.257Z,971.20
2019-03-06T07:47:05.077Z,971.28
2019-03-06T07:48:05.236Z,971.20
2019-03-06T07:49:04.963Z,971.23
2019-03-06T07:50:04.931Z,971.20
2019-03-06T07:51:05.347Z,971.11
2019-03-06T07:52:05.141Z,971.26
2019-03-06T07:53:05.262Z,971.20
2019-03-06T07:54:05.114Z,971.15
2019-03-06T07:55:04.712Z,971.23
2019-03-06T07:56:05.753Z,971.23
2019-03-06T07:57:05.143Z,971.20
2019-03-06T07:58:05.428Z,971.01
2019-03-06T07:59:05.025Z,971.20
2019-03-06T08:00:05.519Z,971.12
2019-03-06T08:01:05.443Z,971.12
2019-03-06T08:02:04.982Z,971.20
2019-03-06T08:03:05.156Z,971.04
2019-03-06T08:04:05.154Z,971.09
2019-03-06T08:05:05.110Z,971.23
2019-03-06T08:06:05.199Z,971.32
2019-03-06T08:07:05.349Z,971.29
2019-03-06T08:08:04.928Z,971.20
2019-03-06T08:09:05.459Z,971.00
2019-03-06T08:10:04.925Z,971.11
2019-03-06T08:11:05.195Z,971.17
2019-03-06T08:12:05.329Z,971.28
2019-03-06T08:13:05.364Z,971.14
2019-03-06T08:14:05.050Z,971.22
2019-03-06T08:15:05.103Z,971.25
2019-03-06T08:16:04.687Z,971.14
2019-03-06T08:17:05.505Z,971.25
2019-03-06T08:18:05.401Z,971.27
2019-03-06T08:19:05.403Z,971.27
2019-03-06T08:20:05.437Z,971.24
2019-03-06T08:21:05.011Z,971.21
2019-03-06T08:22:05.492Z,971.30
2019-03-06T08:23:05.614Z,971.41
2019-03-06T08:24:04.839Z,971.27
2019-03-06T08:25:04.855Z,971.35
2019-03-06T08:26:05.693Z,971.18
2019-03-06T08:27:04.982Z,971.09
2019-03-06T08:28:05.270Z,971.20
2019-03-06T08:29:10.465Z,971.20
2019-03-06T08:30:05.057Z,971.25
2019-03-06T08:31:05.728Z,971.22
2019-03-06T08:32:05.102Z,971.22
2019-03-06T08:33:05.531Z,971.25
2019-03-06T08:34:05.721Z,971.22
2019-03-06T08:35:05.289Z,971.10
2019-03-06T08:36:05.013Z,971.24
2019-03-06T08:37:05.249Z,971.01
2019-03-06T08:38:05.607Z,971.18
2019-03-06T08:39:05.217Z,971.07
2019-03-06T08:40:04.683Z,971.26
2019-03-06T08:41:07.565Z,971.23
2019-03-06T08:42:05.336Z,971.20
2019-03-06T08:43:04.903Z,971.14
2019-03-06T08:44:05.198Z,971.17
2019-03-06T08:45:05.205Z,971.31
2019-03-06T08:46:05.091Z,971.14
2019-03-06T08:47:05.441Z,971.22
2019-03-06T08:48:05.172Z,970.99
2019-03-06T08:49:05.674Z,971.10
2019-03-06T08:50:05.554Z,971.07
2019-03-06T08:51:05.160Z,971.07
2019-03-06T08:52:05.027Z,971.18
2019-03-06T08:53:05.077Z,971.07
2019-03-06T08:54:05.313Z,971.09
2019-03-06T08:55:05.052Z,971.01
2019-03-06T08:56:05.179Z,971.12
2019-03-06T08:57:05.496Z,971.09
2019-03-06T08:58:05.006Z,971.03
2019-03-06T08:59:05.513Z,970.94
2019-03-06T09:00:05.277Z,970.97
2019-03-06T09:01:04.926Z,971.00
2019-03-06T09:02:05.626Z,970.88
2019-03-06T09:03:04.982Z,970.91
2019-03-06T09:04:05.375Z,970.91
2019-03-06T09:05:05.141Z,970.82
2019-03-06T09:06:05.377Z,970.96
2019-03-06T09:07:05.416Z,971.08
2019-03-06T09:08:05.389Z,970.96
2019-03-06T09:09:05.088Z,970.85
2019-03-06T09:10:05.630Z,971.02
2019-03-06T09:11:05.126Z,970.96
2019-03-06T09:12:05.389Z,971.01
2019-03-06T09:13:05.665Z,970.90
2019-03-06T09:14:05.502Z,970.81
2019-03-06T09:15:05.116Z,970.78
2019-03-06T09:16:05.681Z,970.72
2019-03-06T09:17:05.863Z,970.77
2019-03-06T09:18:09.646Z,970.74
2019-03-06T09:19:05.673Z,970.82
2019-03-06T09:20:05.451Z,970.73
2019-03-06T09:21:05.574Z,970.82
2019-03-06T09:22:05.596Z,970.76
2019-03-06T09:23:05.360Z,970.58
2019-03-06T09:24:05.026Z,970.78
2019-03-06T09:25:05.534Z,970.66
2019-03-06T09:26:05.786Z,970.80
2019-03-06T09:27:05.138Z,970.65
2019-03-06T09:28:05.380Z,970.71
2019-03-06T09:29:05.305Z,970.53
2019-03-06T09:30:16.404Z,970.64
2019-03-06T09:31:05.279Z,970.61
2019-03-06T09:32:05.095Z,970.52
2019-03-06T09:33:05.407Z,970.46
2019-03-06T09:34:05.197Z,970.63
2019-03-06T09:35:05.668Z,970.74
2019-03-06T09:36:05.298Z,970.74
2019-03-06T09:37:04.765Z,970.71
2019-03-06T09:38:11.557Z,970.70
2019-03-06T09:39:05.283Z,970.73
2019-03-06T09:40:06.547Z,970.76
2019-03-06T09:41:05.391Z,970.70
2019-03-06T09:42:05.152Z,970.86
2019-03-06T09:43:10.357Z,970.64
2019-03-06T09:44:05.060Z,970.66
2019-03-06T09:45:05.440Z,970.69
2019-03-06T09:46:05.540Z,970.74
2019-03-06T09:47:05.094Z,970.66
2019-03-06T09:48:05.248Z,970.43
2019-03-06T09:49:12.126Z,970.48
2019-03-06T09:50:05.284Z,970.45
2019-03-06T09:51:05.372Z,970.48
2019-03-06T09:52:05.427Z,970.37
2019-03-06T09:53:04.698Z,970.58
2019-03-06T09:54:05.341Z,970.58
2019-03-06T09:55:05.338Z,970.47
2019-03-06T09:56:05.385Z,970.64
2019-03-06T09:57:05.551Z,970.61
2019-03-06T09:58:04.968Z,970.72
2019-03-06T09:59:04.834Z,970.75
2019-03-06T10:00:04.941Z,970.81
2019-03-06T10:01:05.317Z,970.89
2019-03-06T10:02:07.575Z,970.67
2019-03-06T10:03:05.415Z,970.81
2019-03-06T10:04:04.782Z,970.65
2019-03-06T10:05:05.322Z,970.79
2019-03-06T10:06:05.416Z,970.79
2019-03-06T10:07:04.926Z,970.88
2019-03-06T10:08:05.173Z,970.80
2019-03-06T10:09:05.151Z,970.83
2019-03-06T10:10:05.664Z,970.75
2019-03-06T10:11:05.200Z,970.84
2019-03-06T10:12:05.122Z,970.84
2019-03-06T10:13:05.397Z,970.85
2019-03-06T10:14:05.514Z,970.76
2019-03-06T10:15:05.346Z,970.76
2019-03-06T10:16:05.282Z,970.76
2019-03-06T10:17:05.566Z,970.82
2019-03-06T10:18:05.333Z,970.76
2019-03-06T10:19:05.003Z,970.79
2019-03-06T10:20:05.160Z,970.70
2019-03-06T10:21:05.114Z,970.81
2019-03-06T10:22:05.412Z,970.70
2019-03-06T10:23:04.976Z,970.67
2019-03-06T10:24:05.718Z,970.75
2019-03-06T10:25:05.078Z,970.72
2019-03-06T10:26:05.427Z,970.77
2019-03-06T10:27:05.369Z,970.63
2019-03-06T10:28:07.157Z,970.69
2019-03-06T10:29:10.525Z,970.68
2019-03-06T10:30:05.397Z,970.74
2019-03-06T10:31:04.770Z,970.59
2019-03-06T10:32:05.239Z,970.68
2019-03-06T10:33:05.282Z,970.48
2019-03-06T10:34:05.454Z,970.67
2019-03-06T10:35:05.480Z,970.56
2019-03-06T10:36:04.757Z,970.58
2019-03-06T10:38:05.038Z,970.52
2019-03-06T10:39:04.931Z,970.52
2019-03-06T10:40:04.914Z,970.43
2019-03-06T10:41:05.436Z,970.43
2019-03-06T10:42:05.122Z,970.49
2019-03-06T10:43:05.662Z,970.39
2019-03-06T10:44:05.010Z,970.44
2019-03-06T10:45:05.498Z,970.43
2019-03-06T10:46:05.095Z,970.43
2019-03-06T10:47:05.527Z,970.39
2019-03-06T10:48:04.912Z,970.43
2019-03-06T10:49:04.907Z,970.36
2019-03-06T10:50:05.261Z,970.43
2019-03-06T10:51:05.320Z,970.33
2019-03-06T10:52:05.187Z,970.38
2019-03-06T10:53:05.390Z,970.32
2019-03-06T10:54:04.942Z,970.38
2019-03-06T10:55:04.930Z,970.26
2019-03-06T10:56:05.247Z,970.42
2019-03-06T10:57:05.266Z,970.34
2019-03-06T10:58:05.023Z,970.20
2019-03-06T10:59:05.356Z,970.31
2019-03-06T11:00:05.460Z,970.33
2019-03-06T11:01:05.299Z,970.13
2019-03-06T11:02:05.232Z,970.10
2019-03-06T11:03:04.974Z,970.18
2019-03-06T11:04:04.976Z,970.13
2019-03-06T11:05:05.376Z,970.01
2019-03-06T11:06:05.345Z,969.90
2019-03-06T11:07:05.197Z,969.98
2019-03-06T11:08:05.184Z,969.87
2019-03-06T11:09:04.894Z,969.97
2019-03-06T11:10:05.168Z,970.09
2019-03-06T11:11:05.010Z,970.03
2019-03-06T11:12:04.840Z,970.00
2019-03-06T11:13:05.465Z,970.00
2019-03-06T11:15:04.988Z,969.83
2019-03-06T11:16:05.549Z,969.80
2019-03-06T11:16:06.376Z,969.89
2019-03-06T11:17:05.512Z,969.77
2019-03-06T11:18:04.935Z,969.85
2019-03-06T11:19:04.823Z,969.65
2019-03-06T11:20:04.980Z,969.74
2019-03-06T11:21:05.214Z,969.68
2019-03-06T11:22:04.992Z,969.59
2019-03-06T11:23:05.221Z,969.73
2019-03-06T11:24:04.938Z,969.58
2019-03-06T11:25:05.536Z,969.61
2019-03-06T11:26:05.287Z,969.52
2019-03-06T11:27:04.854Z,969.49
2019-03-06T11:28:05.522Z,969.49
2019-03-06T11:29:10.533Z,969.45
2019-03-06T11:30:05.068Z,969.42
2019-03-06T11:31:05.304Z,969.39
2019-03-06T11:32:05.289Z,969.39
2019-03-06T11:33:04.968Z,969.24
2019-03-06T11:34:05.487Z,969.21
2019-03-06T11:35:05.289Z,969.26
2019-03-06T11:36:04.794Z,969.23
2019-03-06T11:37:05.208Z,969.20
2019-03-06T11:38:04.959Z,969.25
2019-03-06T11:39:05.034Z,969.17
2019-03-06T11:40:05.000Z,969.08
2019-03-06T11:41:05.576Z,968.99
2019-03-06T11:42:05.219Z,969.05
2019-03-06T11:43:04.911Z,968.96
2019-03-06T11:44:05.423Z,969.04
2019-03-06T11:45:05.573Z,968.99
2019-03-06T11:46:05.074Z,969.01
2019-03-06T11:47:05.419Z,969.01
2019-03-06T11:48:05.238Z,968.92
2019-03-06T11:49:07.007Z,969.01
2019-03-06T11:50:05.010Z,968.86
2019-03-06T11:51:05.838Z,968.86
2019-03-06T11:52:05.695Z,968.94
2019-03-06T11:53:05.589Z,968.88
2019-03-06T11:54:05.530Z,968.88
2019-03-06T11:55:07.844Z,968.74
2019-03-06T11:56:05.121Z,968.82
2019-03-06T11:57:04.654Z,968.79
2019-03-06T11:58:05.026Z,968.99
2019-03-06T11:59:05.294Z,968.87
2019-03-06T12:00:05.358Z,968.96
2019-03-06T12:01:04.739Z,968.84
2019-03-06T12:02:04.978Z,968.87
2019-03-06T12:03:05.017Z,968.98
2019-03-06T12:04:05.392Z,968.93
2019-03-06T12:05:05.150Z,968.81
2019-03-06T12:06:05.077Z,968.84
2019-03-06T12:07:05.500Z,968.78
2019-03-06T12:08:04.840Z,968.71
2019-03-06T12:09:05.431Z,968.78
2019-03-06T12:10:05.077Z,968.79
2019-03-06T12:11:05.263Z,968.71
2019-03-06T12:12:05.153Z,968.54
2019-03-06T12:13:04.803Z,968.71
2019-03-06T12:14:05.078Z,968.71
2019-03-06T12:15:05.428Z,968.63
2019-03-06T12:16:05.075Z,968.52
2019-03-06T12:17:05.673Z,968.58
2019-03-06T12:18:05.023Z,968.58
2019-03-06T12:19:05.353Z,968.70
2019-03-06T12:20:08.754Z,968.36
2019-03-06T12:21:04.885Z,968.50
2019-03-06T12:22:04.940Z,968.59
2019-03-06T12:23:04.884Z,968.45
2019-03-06T12:24:05.380Z,968.48
2019-03-06T12:25:05.077Z,968.62
2019-03-06T12:26:05.260Z,968.48
2019-03-06T12:27:05.406Z,968.45
2019-03-06T12:28:05.370Z,968.59
2019-03-06T12:29:04.945Z,968.57